Last 6 Hours

AM-Summit 8643' (Ward Mt.)

15 Minute Data | America/Los_Angeles
as of 10/6/22 7:40 PM PDT
Date & Time Temp (°F) RH (%) Dew Pt (°F) Wet Bulb (°F) Wind Dir (°) Wind Spd (mph) Wind Gust (mph) WindChill (°F)
10/6/22 - 1930 55.4 29 23.6 40.6 NNE | 13 - 0.0 55.4
10/6/22 - 1915 55.8 29 23.8 40.9 N | 11 - 0.0 55.8
10/6/22 - 1900 56.5 28 24.2 41.3 N | 11 - 0.0 56.5
10/6/22 - 1845 57.6 28 24.4 41.8 N | 10 - 0.0 57.6
10/6/22 - 1830 59.1 26 24.6 42.6 N | 8 - 0.0 59.1
10/6/22 - 1815 60.4 25 24.2 43.1 NNE | 18 - 0.0 60.4
10/6/22 - 1800 62.1 23 24.1 43.8 NNE | 30 - 0.0 62.1
10/6/22 - 1745 63.4 23 24.6 44.5 NNE | 13 - 0.0 63.4
10/6/22 - 1730 64.4 22 24.9 45.0 NNE | 13 - 0.0 64.4
10/6/22 - 1715 64.8 22 25.2 45.3 N | 10 - 0.0 64.8
10/6/22 - 1700 66.0 21 25.2 45.8 NNE | 13 - 0.0 66.0
10/6/22 - 1645 66.6 21 25.2 46.0 NNE | 12 0.0 0.0 66.6
10/6/22 - 1630 66.3 20 24.6 45.8 NNE | 15 - 0.0 66.3
10/6/22 - 1615 66.0 20 23.8 45.4 NNE | 14 0.0 0.0 66.0
10/6/22 - 1600 66.4 20 23.7 45.6 NNE | 14 0.0 0.0 66.4
10/6/22 - 1545 66.2 20 24.1 45.6 NNE | 14 0.0 0.0 66.2
10/6/22 - 1530 66.3 20 24.4 45.7 NNE | 13 - 0.0 66.3
10/6/22 - 1515 65.2 20 23.6 45.0 NNE | 14 0.0 0.0 65.2
10/6/22 - 1500 65.7 20 23.8 45.3 NNE | 12 0.0 0.0 65.7
10/6/22 - 1445 64.4 21 23.1 44.6 NNE | 18 0.0 0.0 64.4
10/6/22 - 1430 63.7 20 22.2 44.0 NNE | 16 0.0 0.0 63.7
10/6/22 - 1415 63.2 20 21.8 43.7 NNE | 15 0.0 0.0 63.2
10/6/22 - 1400 62.9 20 21.7 43.5 N | 8 0.0 0.0 62.9
10/6/22 - 1345 62.8 20 21.4 43.4 N | 10 0.0 0.0 62.8
Max 66.6 29 25.2 46.0 - 0.0 0.0 66.6
Avg 63.0 22 23.8 44.1 - 0.0 0.0 63.0
Min 55.4 20 21.4 40.6 - 0.0 0.0 55.4